Nbp Island — V2FH3 — position and weather

sailwx.info

Track history (hours):
 
Tides and Currents Weather Stations Pressure Air Temp Water Temp Dewpoint Dewpoint Depression Visibility Wind Speed Wind Dir Waves Ship Positions

Nbp Island

Last reported at 2017-Jan-20 16:26 UTC. Time now 2017-Jan-20 18:07 UTC.
Position N 54°09' E 012°06'.

Length 107 m; draft 8 m.

Type: Cargo ship. MMSI: 305674000.

Date/timePositionNaut miles runAvg speedWind from/ knotsBaromVisibWave heightAir tempDewpointWater temp
2017-Jan-20 16:26N 54°09' E 012°06'0 0.0
2017-Jan-20 15:32N 54°09' E 012°06'0 0.0
2017-Jan-20 13:17N 54°09' E 012°06'0 0.0
2017-Jan-20 08:32N 54°09' E 012°06'0 0.0
2017-Jan-20 06:17N 54°09' E 012°06'0 0.0
2017-Jan-20 02:16N 54°09' E 012°06'1 1.5
2017-Jan-20 01:33N 54°10' E 012°06'7 6.8
2017-Jan-20 00:32N 54°16' E 012°01'7 6.8
2017-Jan-19 23:32N 54°23' E 011°59'8 8.2
2017-Jan-19 22:33N 54°28' E 012°10'1010.5
2017-Jan-19 21:33N 54°37' E 012°17'5210.5
2017-Jan-19 16:33N 54°59' E 013°40'1110.6
2017-Jan-19 15:34N 55°02' E 013°58'10 9.8
2017-Jan-19 14:33N 55°08' E 014°12'1010.4
2017-Jan-19 13:33N 55°17' E 014°23'1110.6
2017-Jan-19 12:33N 55°25' E 014°34'1110.4
2017-Jan-19 11:32N 55°31' E 014°50'1210.4
2017-Jan-19 10:22N 55°37' E 015°08'34810.0
2017-Jan-17 23:32N 59°35' E 023°00'1010.3
2017-Jan-17 22:33N 59°38' E 023°19'1010.4
2017-Jan-17 21:33N 59°41' E 023°39'1110.5
2017-Jan-17 20:33N 59°44' E 023°59'4310.4
2017-Jan-17 16:23N 59°54' E 025°23'1011.2
2017-Jan-17 15:31N 59°55' E 025°42'1110.6
2017-Jan-17 14:26N 60°01' E 026°01'1010.9
2017-Jan-17 13:33N 60°08' E 026°15'1010.5
2017-Jan-17 12:33N 60°16' E 026°29'1111.0
2017-Jan-17 11:33N 60°23' E 026°46'1111.0
2017-Jan-17 10:34N 60°20' E 027°08'10 9.6
2017-Jan-17 09:33N 60°30' E 027°09'2 2.0
2017-Jan-17 08:33N 60°32' E 027°10'0 0.0
2017-Jan-17 07:33N 60°32' E 027°10'0 0.0
2017-Jan-17 06:33N 60°32' E 027°10'0 0.0
2017-Jan-17 05:33N 60°32' E 027°10'0 0.0
2017-Jan-17 04:33N 60°32' E 027°10'0 0.0
2017-Jan-17 03:33N 60°32' E 027°10'0 0.0
2017-Jan-17 02:33N 60°32' E 027°10'0 0.0
2017-Jan-17 01:33N 60°32' E 027°10'0 0.0
2017-Jan-17 00:33N 60°32' E 027°10'0 0.0
2017-Jan-16 23:33N 60°32' E 027°10'0 0.0
2017-Jan-16 22:33N 60°32' E 027°10'0 0.0
2017-Jan-16 21:33N 60°32' E 027°10'0 0.0
2017-Jan-16 20:33N 60°32' E 027°10'0 0.0
2017-Jan-16 19:33N 60°32' E 027°10'0 0.0
2017-Jan-16 18:33N 60°32' E 027°10'0 0.0
2017-Jan-16 17:33N 60°32' E 027°10'0 0.0
2017-Jan-16 16:33N 60°32' E 027°10'0 0.0
2017-Jan-16 15:33N 60°32' E 027°10'0 0.0
2017-Jan-16 14:30N 60°32' E 027°10'0 0.0
2017-Jan-16 13:30N 60°32' E 027°10'0 0.0
2017-Jan-16 12:33N 60°32' E 027°10'0 0.0
2017-Jan-16 11:33N 60°32' E 027°10'0 0.0
2017-Jan-16 10:33N 60°32' E 027°10'0 0.0
2017-Jan-16 09:33N 60°32' E 027°10'0 0.0
2017-Jan-16 08:33N 60°32' E 027°10'0 0.0
2017-Jan-16 07:33N 60°32' E 027°10'0 0.0
2017-Jan-16 06:33N 60°32' E 027°10'0 0.0
2017-Jan-16 05:33N 60°32' E 027°10'0 0.0
2017-Jan-16 04:33N 60°32' E 027°10'0 0.0
2017-Jan-16 03:33N 60°32' E 027°10'0 0.0
2017-Jan-16 02:33N 60°32' E 027°10'0 0.0
2017-Jan-16 01:33N 60°32' E 027°10'0 0.0
2017-Jan-16 00:30N 60°32' E 027°10'0 0.0
2017-Jan-15 23:33N 60°32' E 027°10'0 0.0
2017-Jan-15 22:33N 60°32' E 027°10'0 0.0
2017-Jan-15 21:33N 60°32' E 027°10'0 0.0
2017-Jan-15 20:33N 60°32' E 027°10'0 0.0
2017-Jan-15 19:33N 60°32' E 027°10'0 0.0
2017-Jan-15 18:33N 60°32' E 027°10'0 0.0
2017-Jan-15 17:33N 60°32' E 027°10'0 0.0
2017-Jan-15 16:33N 60°32' E 027°10'0 0.0
2017-Jan-15 15:33N 60°32' E 027°10'0 0.0
2017-Jan-15 14:30N 60°32' E 027°10'0 0.0
2017-Jan-15 13:33N 60°32' E 027°10'0 0.0
2017-Jan-15 12:33N 60°32' E 027°10'0 0.0
2017-Jan-15 11:30N 60°32' E 027°10'0 0.0
2017-Jan-15 10:33N 60°32' E 027°10'0 0.0
2017-Jan-15 09:21N 60°32' E 027°10'0 0.0
2017-Jan-15 08:33N 60°32' E 027°10'0 0.0
2017-Jan-15 07:33N 60°32' E 027°10'0 0.0
2017-Jan-15 06:24N 60°32' E 027°10'0 0.0
2017-Jan-15 05:33N 60°32' E 027°10'0 0.0
2017-Jan-15 04:33N 60°32' E 027°10'0 0.0
2017-Jan-15 03:30N 60°32' E 027°10'0 0.0
2017-Jan-15 02:33N 60°32' E 027°10'0 0.0
2017-Jan-15 01:33N 60°32' E 027°10'0 0.0
2017-Jan-15 00:30N 60°32' E 027°10'0 0.0
2017-Jan-14 23:30N 60°32' E 027°10'0 0.0
2017-Jan-14 22:30N 60°32' E 027°10'0 0.0
2017-Jan-14 21:27N 60°32' E 027°10'0 0.0
2017-Jan-14 20:30N 60°32' E 027°10'0 0.0
2017-Jan-14 19:30N 60°32' E 027°10'0 0.0
2017-Jan-14 18:27N 60°32' E 027°10'0 0.0
2017-Jan-14 17:33N 60°32' E 027°10'0 0.0
2017-Jan-14 16:30N 60°32' E 027°10'0 0.0
2017-Jan-14 15:27N 60°32' E 027°10'0 0.0
2017-Jan-14 14:30N 60°32' E 027°10'0 0.0
2017-Jan-14 13:33N 60°32' E 027°10'0 0.0
2017-Jan-14 12:30N 60°32' E 027°10'0 0.0
2017-Jan-14 11:30N 60°32' E 027°10'0 0.0
2017-Jan-14 10:30N 60°32' E 027°10'0 0.0
2017-Jan-14 09:27N 60°32' E 027°10'0 0.0
2017-Jan-14 08:33N 60°32' E 027°10'0 0.0
2017-Jan-14 07:30N 60°32' E 027°10'0 0.0
2017-Jan-14 06:30N 60°32' E 027°10'0 0.0
2017-Jan-14 05:30N 60°32' E 027°10'0 0.0
2017-Jan-14 04:30N 60°32' E 027°10'0 0.0
2017-Jan-14 03:27N 60°32' E 027°10'8 2.1
2017-Jan-13 23:33N 60°24' E 027°08'1010.2
2017-Jan-13 22:33N 60°23' E 026°48'1111.6
2017-Jan-13 21:34N 60°16' E 026°29'6 5.9
2017-Jan-13 20:34N 60°11' E 026°24'1 1.1
2017-Jan-13 19:34N 60°10' E 026°21'15210.1
2017-Jan-13 04:30N 59°32' E 021°29'4911.5
2017-Jan-13 00:12N 59°45' E 019°54'710.7
2017-Jan-12 23:33N 59°47' E 019°41'1111.2
2017-Jan-12 22:33N 59°55' E 019°26'1211.7
2017-Jan-12 21:33N 60°04' E 019°11'  
Track history (hours):
 
Tides and Currents Weather Stations Pressure Air Temp Water Temp Dewpoint Dewpoint Depression Visibility Wind Speed Wind Dir Waves Ship Positions

Nbp Island

Last reported at 2017-Jan-20 16:26 UTC. Time now 2017-Jan-20 18:07 UTC.
Position N 54°09' E 012°06'.

Length 107 m; draft 8 m.

Type: Cargo ship. MMSI: 305674000.

Date/timePositionNaut miles runAvg speedWind from/ knotsBaromVisibWave heightAir tempDewpointWater temp
2017-Jan-20 16:26N 54°09' E 012°06'0 0.0
2017-Jan-20 15:32N 54°09' E 012°06'0 0.0
2017-Jan-20 13:17N 54°09' E 012°06'0 0.0
2017-Jan-20 08:32N 54°09' E 012°06'0 0.0
2017-Jan-20 06:17N 54°09' E 012°06'0 0.0
2017-Jan-20 02:16N 54°09' E 012°06'1 1.5
2017-Jan-20 01:33N 54°10' E 012°06'7 6.8
2017-Jan-20 00:32N 54°16' E 012°01'7 6.8
2017-Jan-19 23:32N 54°23' E 011°59'8 8.2
2017-Jan-19 22:33N 54°28' E 012°10'1010.5
2017-Jan-19 21:33N 54°37' E 012°17'5210.5
2017-Jan-19 16:33N 54°59' E 013°40'1110.6
2017-Jan-19 15:34N 55°02' E 013°58'10 9.8
2017-Jan-19 14:33N 55°08' E 014°12'1010.4
2017-Jan-19 13:33N 55°17' E 014°23'1110.6
2017-Jan-19 12:33N 55°25' E 014°34'1110.4
2017-Jan-19 11:32N 55°31' E 014°50'1210.4
2017-Jan-19 10:22N 55°37' E 015°08'34810.0
2017-Jan-17 23:32N 59°35' E 023°00'1010.3
2017-Jan-17 22:33N 59°38' E 023°19'1010.4
2017-Jan-17 21:33N 59°41' E 023°39'1110.5
2017-Jan-17 20:33N 59°44' E 023°59'4310.4
2017-Jan-17 16:23N 59°54' E 025°23'1011.2
2017-Jan-17 15:31N 59°55' E 025°42'1110.6
2017-Jan-17 14:26N 60°01' E 026°01'1010.9
2017-Jan-17 13:33N 60°08' E 026°15'1010.5
2017-Jan-17 12:33N 60°16' E 026°29'1111.0
2017-Jan-17 11:33N 60°23' E 026°46'1111.0
2017-Jan-17 10:34N 60°20' E 027°08'10 9.6
2017-Jan-17 09:33N 60°30' E 027°09'2 2.0
2017-Jan-17 08:33N 60°32' E 027°10'0 0.0
2017-Jan-17 07:33N 60°32' E 027°10'0 0.0
2017-Jan-17 06:33N 60°32' E 027°10'0 0.0
2017-Jan-17 05:33N 60°32' E 027°10'0 0.0
2017-Jan-17 04:33N 60°32' E 027°10'0 0.0
2017-Jan-17 03:33N 60°32' E 027°10'0 0.0
2017-Jan-17 02:33N 60°32' E 027°10'0 0.0
2017-Jan-17 01:33N 60°32' E 027°10'0 0.0
2017-Jan-17 00:33N 60°32' E 027°10'0 0.0
2017-Jan-16 23:33N 60°32' E 027°10'0 0.0
2017-Jan-16 22:33N 60°32' E 027°10'0 0.0
2017-Jan-16 21:33N 60°32' E 027°10'0 0.0
2017-Jan-16 20:33N 60°32' E 027°10'0 0.0
2017-Jan-16 19:33N 60°32' E 027°10'0 0.0
2017-Jan-16 18:33N 60°32' E 027°10'0 0.0
2017-Jan-16 17:33N 60°32' E 027°10'0 0.0
2017-Jan-16 16:33N 60°32' E 027°10'0 0.0
2017-Jan-16 15:33N 60°32' E 027°10'0 0.0
2017-Jan-16 14:30N 60°32' E 027°10'0 0.0
2017-Jan-16 13:30N 60°32' E 027°10'0 0.0
2017-Jan-16 12:33N 60°32' E 027°10'0 0.0
2017-Jan-16 11:33N 60°32' E 027°10'0 0.0
2017-Jan-16 10:33N 60°32' E 027°10'0 0.0
2017-Jan-16 09:33N 60°32' E 027°10'0 0.0
2017-Jan-16 08:33N 60°32' E 027°10'0 0.0
2017-Jan-16 07:33N 60°32' E 027°10'0 0.0
2017-Jan-16 06:33N 60°32' E 027°10'0 0.0
2017-Jan-16 05:33N 60°32' E 027°10'0 0.0
2017-Jan-16 04:33N 60°32' E 027°10'0 0.0
2017-Jan-16 03:33N 60°32' E 027°10'0 0.0
2017-Jan-16 02:33N 60°32' E 027°10'0 0.0
2017-Jan-16 01:33N 60°32' E 027°10'0 0.0
2017-Jan-16 00:30N 60°32' E 027°10'0 0.0
2017-Jan-15 23:33N 60°32' E 027°10'0 0.0
2017-Jan-15 22:33N 60°32' E 027°10'0 0.0
2017-Jan-15 21:33N 60°32' E 027°10'0 0.0
2017-Jan-15 20:33N 60°32' E 027°10'0 0.0
2017-Jan-15 19:33N 60°32' E 027°10'0 0.0
2017-Jan-15 18:33N 60°32' E 027°10'0 0.0
2017-Jan-15 17:33N 60°32' E 027°10'0 0.0
2017-Jan-15 16:33N 60°32' E 027°10'0 0.0
2017-Jan-15 15:33N 60°32' E 027°10'0 0.0
2017-Jan-15 14:30N 60°32' E 027°10'0 0.0
2017-Jan-15 13:33N 60°32' E 027°10'0 0.0
2017-Jan-15 12:33N 60°32' E 027°10'0 0.0
2017-Jan-15 11:30N 60°32' E 027°10'0 0.0
2017-Jan-15 10:33N 60°32' E 027°10'0 0.0
2017-Jan-15 09:21N 60°32' E 027°10'0 0.0
2017-Jan-15 08:33N 60°32' E 027°10'0 0.0
2017-Jan-15 07:33N 60°32' E 027°10'0 0.0
2017-Jan-15 06:24N 60°32' E 027°10'0 0.0
2017-Jan-15 05:33N 60°32' E 027°10'0 0.0
2017-Jan-15 04:33N 60°32' E 027°10'0 0.0
2017-Jan-15 03:30N 60°32' E 027°10'0 0.0
2017-Jan-15 02:33N 60°32' E 027°10'0 0.0
2017-Jan-15 01:33N 60°32' E 027°10'0 0.0
2017-Jan-15 00:30N 60°32' E 027°10'0 0.0
2017-Jan-14 23:30N 60°32' E 027°10'0 0.0
2017-Jan-14 22:30N 60°32' E 027°10'0 0.0
2017-Jan-14 21:27N 60°32' E 027°10'0 0.0
2017-Jan-14 20:30N 60°32' E 027°10'0 0.0
2017-Jan-14 19:30N 60°32' E 027°10'0 0.0
2017-Jan-14 18:27N 60°32' E 027°10'0 0.0
2017-Jan-14 17:33N 60°32' E 027°10'0 0.0
2017-Jan-14 16:30N 60°32' E 027°10'0 0.0
2017-Jan-14 15:27N 60°32' E 027°10'0 0.0
2017-Jan-14 14:30N 60°32' E 027°10'0 0.0
2017-Jan-14 13:33N 60°32' E 027°10'0 0.0
2017-Jan-14 12:30N 60°32' E 027°10'0 0.0
2017-Jan-14 11:30N 60°32' E 027°10'0 0.0
2017-Jan-14 10:30N 60°32' E 027°10'0 0.0
2017-Jan-14 09:27N 60°32' E 027°10'0 0.0
2017-Jan-14 08:33N 60°32' E 027°10'0 0.0
2017-Jan-14 07:30N 60°32' E 027°10'0 0.0
2017-Jan-14 06:30N 60°32' E 027°10'0 0.0
2017-Jan-14 05:30N 60°32' E 027°10'0 0.0
2017-Jan-14 04:30N 60°32' E 027°10'0 0.0
2017-Jan-14 03:27N 60°32' E 027°10'8 2.1
2017-Jan-13 23:33N 60°24' E 027°08'1010.2
2017-Jan-13 22:33N 60°23' E 026°48'1111.6
2017-Jan-13 21:34N 60°16' E 026°29'6 5.9
2017-Jan-13 20:34N 60°11' E 026°24'1 1.1
2017-Jan-13 19:34N 60°10' E 026°21'15210.1
2017-Jan-13 04:30N 59°32' E 021°29'4911.5
2017-Jan-13 00:12N 59°45' E 019°54'710.7
2017-Jan-12 23:33N 59°47' E 019°41'1111.2
2017-Jan-12 22:33N 59°55' E 019°26'1211.7
2017-Jan-12 21:33N 60°04' E 019°11'  

Dump ship's entire track history